Ginys del Meteocat
Campanya meteocatpedra

Dades de l'estació automàtica Sant Llorenç Savall

?
?
Resum diari 20:30 TU
Dades diàries de l'estació meteorològica
Temperatura mitjana 17.4 °C
Temperatura màxima 22.3 °C 13:14 TU
Temperatura mínima 11.3 °C 20:59 TU
Humitat relativa mitjana 60%
Precipitació acumulada 0.0 mm
Ratxa màxima del vent (10 m) 32.0 km/h - 356º 4:17 TU

El tram horari està expressat en Temps Universal (TU). Cal sumar una hora en horari d'hivern i dues en horari d'estiu per passar a l'hora oficial.

Sant Llorenç Savall

Metadades estació meteorol´gica
Municipi Sant Llorenç Savall
Comarca Vallès Occidental
Altitud 528 m
Data alta 25.03.1998
Estat actual Operativa
Dades de període
Període
TU
TM
°C
TX
°C
TN
°C
HRM
%
PPT
mm
VVM (10 m)
km/h
DVM (10 m)
graus
VVX (10 m)
km/h
00:00 - 00:30 15.8 16.0 15.5 55 0.0 5.4 64 21.2
00:30 - 01:00 15.9 16.1 15.5 54 0.0 7.2 33 17.3
01:00 - 01:30 15.8 16.0 15.7 54 0.0 7.2 21 22.0
01:30 - 02:00 16.1 16.3 15.9 55 0.0 8.3 25 23.8
02:00 - 02:30 16.1 16.3 15.9 56 0.0 7.2 20 26.3
02:30 - 03:00 16.3 16.5 16.0 57 0.0 6.8 38 18.7
03:00 - 03:30 16.3 16.5 16.1 57 0.0 6.8 36 21.2
03:30 - 04:00 16.1 16.2 16.0 57 0.0 6.8 32 24.8
04:00 - 04:30 16.2 16.3 15.9 56 0.0 8.6 37 32.0
04:30 - 05:00 16.3 16.4 16.2 57 0.0 8.6 49 27.0
05:00 - 05:30 16.4 16.5 16.2 57 0.0 9.4 39 25.2
05:30 - 06:00 16.2 16.3 16.1 57 0.0 6.5 40 21.2
06:00 - 06:30 16.1 16.2 16.0 57 0.0 5.4 15 17.6
06:30 - 07:00 15.9 16.0 15.7 57 0.0 6.8 228 17.3
07:00 - 07:30 16.4 17.2 15.7 56 0.0 4.0 293 17.3
07:30 - 08:00 17.2 17.2 17.0 54 0.0 5.4 264 18.0
08:00 - 08:30 17.1 17.3 16.9 54 0.0 6.5 247 22.7
08:30 - 09:00 17.9 18.1 17.4 54 0.0 5.4 246 18.7
09:00 - 09:30 18.1 18.2 17.9 54 0.0 4.3 38 13.3
09:30 - 10:00 18.3 18.5 18.2 56 0.0 7.2 26 20.9
10:00 - 10:30 18.4 19.1 18.2 59 0.0 7.2 36 27.7
10:30 - 11:00 19.3 19.5 19.1 57 0.0 6.5 58 22.3
11:00 - 11:30 19.7 20.0 19.4 56 0.0 7.2 60 27.4
11:30 - 12:00 20.8 21.2 20.2 53 0.0 5.8 70 22.7
12:00 - 12:30 21.4 21.6 21.2 51 0.0 7.2 65 27.4
12:30 - 13:00 21.4 21.9 21.1 51 0.0 7.2 65 27.7
13:00 - 13:30 21.9 22.3 21.6 50 0.0 4.3 199 17.6
13:30 - 14:00 22.0 22.3 21.8 49 0.0 4.0 206 16.9
14:00 - 14:30 21.9 22.2 21.8 49 0.0 4.7 43 13.7
14:30 - 15:00 21.7 21.9 21.5 50 0.0 7.6 47 23.8
15:00 - 15:30 21.4 21.6 21.2 52 0.0 4.3 66 16.2
15:30 - 16:00 21.1 21.2 20.8 54 0.0 4.7 64 15.8
16:00 - 16:30 20.5 20.8 20.2 56 0.0 2.5 50 10.1
16:30 - 17:00 19.5 20.2 18.7 61 0.0 1.1 148 4.0
17:00 - 17:30 17.1 18.6 15.9 68 0.0 1.4 43 5.4
17:30 - 18:00 15.5 15.9 14.8 73 0.0 2.2 44 5.8
18:00 - 18:30 14.0 14.8 13.4 79 0.0 1.4 60 4.7
18:30 - 19:00 13.2 13.6 13.0 84 0.0 2.2 46 6.5
19:00 - 19:30 13.2 13.6 12.8 85 0.0 0.7 17 2.9
19:30 - 20:00 12.5 12.9 12.1 89 0.0 1.4 50 5.0
20:00 - 20:30 12.2 12.4 12.0 91 0.0 1.1 17 4.0
20:30 - 21:00 11.8 12.3 11.3 93 0.0 0.7 34 4.0
21:00 - 21:30 (s/d) (s/d) (s/d) (s/d) (s/d) (s/d) (s/d) (s/d)

Les dades en taronja només han passat un control de qualitat automàtic. Resta pendent la seva validació definitiva.